x

8454049 - Quonset Point, Ri (qptr1) Weather Station

8:30pm - Mon 28th Jul 2014 All times are EDT. -4 hours from GMT.

  • Wind
    14mph, 16mph gusts
  • Sea Temp 74°f
  • 空気 Temp 73°f
  • Sea Pressure 999.9mb
  • 8454049 - Quonset Point, Ri
  • 8454049 - Quonset Point, Ri

More Historic Weather Station data

Upgrade to MSW Pro to gain access to the past 30 days of data for over 8000 Wavebouys and Weather Stations around the globe.

Join Pro

Comparision Forecast

View Surf forecast
   
Mon 07/28 8:30pm 14 16 mph 999.9mb 74f 73f
8:24pm 15 16 mph 999.9mb 74f 73f
8:18pm 15 17 mph 999.9mb 74f 73f
8:12pm 16 17 mph 999.8mb 74f 73f
8:06pm 16 17 mph 999.8mb 74f 74f
8:00pm 15 18 mph 999.6mb 74f 74f
7:54pm 16 18 mph 999.5mb 74f 74f
7:48pm 17 20 mph 999.5mb 74f 74f
7:42pm 17 20 mph 999.4mb 74f 74f
7:36pm 18 22 mph 999.5mb 74f 75f
7:30pm 17 22 mph 999.5mb 74f 75f
7:24pm 17 21 mph 999.5mb 74f 75f
7:18pm 17 22 mph 999.6mb 74f 75f
7:12pm 20 22 mph 999.5mb 74f 75f
7:06pm 21 25 mph 999.4mb 74f 76f
7:00pm 17 23 mph 999.4mb 74f 76f
6:54pm 21 25 mph 999.3mb 74f 76f
6:48pm 21 25 mph 999.4mb 74f 76f
6:42pm 20 23 mph 999.4mb 74f 76f
6:36pm 18 25 mph 999.2mb 74f 77f
6:30pm 21 26 mph 999mb 74f 77f
6:24pm 21 24 mph 999mb 74f 77f
6:18pm 21 24 mph 998.9mb 74f 77f
6:12pm 20 24 mph 998.9mb 74f 77f
6:06pm 17 22 mph 998.9mb 74f 77f
6:00pm 18 21 mph 998.8mb 74f 77f
5:54pm 20 26 mph 998.7mb 74f 77f
5:48pm 16 24 mph 998.7mb 74f 77f
5:42pm 20 26 mph 998.6mb 74f 77f
5:36pm 17 22 mph 998.5mb 74f 77f
5:30pm 18 24 mph 998.5mb 74f 77f
5:24pm 21 28 mph 998.5mb 74f 77f
5:18pm 21 23 mph 998.3mb 74f 77f
5:12pm 21 23 mph 998.3mb 74f 77f
5:06pm 18 22 mph 998.3mb 74f 77f
5:00pm 18 22 mph 998.3mb 74f 78f
4:54pm 21 25 mph 998.2mb 74f 78f
4:48pm 17 22 mph 998.2mb 74f 78f
4:42pm 20 21 mph 998.2mb 74f 78f
4:36pm 18 23 mph 998.3mb 74f 78f
4:30pm 18 23 mph 998.3mb 73f 78f
4:24pm 21 26 mph 998.2mb 73f 78f
4:18pm 20 22 mph 998.3mb 73f 78f
4:12pm 17 24 mph 998.3mb 73f 78f
4:06pm 16 22 mph 998.3mb 73f 78f
4:00pm 18 21 mph 998.3mb 73f 79f
3:54pm 14 18 mph 998.4mb 73f 78f
3:48pm 17 20 mph 998.4mb 73f 79f
3:42pm 14 18 mph 998.5mb 73f 79f
3:36pm 15 20 mph 998.6mb 73f 79f
3:30pm 15 18 mph 998.6mb 73f 78f
3:24pm 16 21 mph 998.7mb 73f 78f
3:18pm 16 18 mph 998.7mb 73f 78f
3:12pm 13 15 mph 998.9mb 73f 78f
3:06pm 14 16 mph 998.9mb 73f 77f
3:00pm 13 16 mph 998.9mb 73f 77f
2:54pm 9 13 mph 999mb 73f 77f
2:48pm 9 14 mph 999mb 73f 76f
2:42pm 13 15 mph 999mb 73f 74f
2:36pm 11 14 mph 999.2mb 73f 73f
2:30pm 13 15 mph 999.1mb 73f 73f
2:24pm 14 16 mph 999.1mb 73f 73f
2:18pm 15 17 mph 999.2mb 73f 73f
2:12pm 14 15 mph 999.2mb 73f 73f
2:06pm 14 15 mph 999.2mb 73f 73f
2:00pm 14 16 mph 999.3mb 73f 73f
1:54pm 15 17 mph 999.4mb 73f 73f
1:48pm 16 18 mph 999.5mb 72f 73f
1:42pm 15 17 mph 999.5mb 72f 73f
1:36pm 16 17 mph 999.4mb 72f 73f
1:30pm 15 16 mph 999.5mb 72f 73f
1:24pm 15 17 mph 999.6mb 72f 73f
1:18pm 15 17 mph 999.8mb 72f 73f
1:12pm 14 16 mph 999.8mb 72f 73f
1:06pm 15 18 mph 999.9mb 72f 73f
1:00pm 15 18 mph 1000mb 72f 73f
12:54pm 14 18 mph 1000.1mb 72f 73f
12:48pm 16 18 mph 1000.2mb 72f 73f
12:42pm 15 17 mph 1000.3mb 72f 74f
12:36pm 11 17 mph 1000.5mb 72f 75f
12:30pm 16 20 mph 1000.5mb 72f 75f
12:24pm 13 17 mph 1000.6mb 72f 76f
12:18pm 17 22 mph 1000.6mb 72f 75f
12:12pm 17 21 mph 1000.7mb 72f 74f
12:06pm 16 20 mph 1000.7mb 72f 73f
12:00pm 17 21 mph 1000.8mb 72f 73f
11:54am 15 18 mph 1000.9mb 72f 73f
11:48am 14 17 mph 1000.9mb 72f 73f
11:42am 15 18 mph 1001mb 72f 74f
11:36am 17 20 mph 1000.9mb 72f 73f
11:30am 16 18 mph 1000.9mb 72f 76f
11:24am 11 17 mph 1001mb 72f 76f
11:18am 13 16 mph 1001mb 72f 76f
11:12am 13 17 mph 1001.1mb 72f 76f
11:06am 16 18 mph 1001.1mb 72f 75f
11:00am 17 21 mph 1001.2mb 72f 75f
10:54am 17 20 mph 1001.1mb 72f 75f
10:48am 21 23 mph 1001.1mb 72f 75f
10:42am 20 24 mph 1001.2mb 72f 75f
10:36am 21 26 mph 1001.1mb 72f 75f
10:30am 24 29 mph 1001.1mb 72f 75f
10:24am 25 30 mph 1001.1mb 72f 75f
10:18am 15 20 mph 1001.1mb 72f 76f
10:12am 18 21 mph 1001.1mb 72f 75f
10:06am 17 22 mph 1001.1mb 72f 75f
10:00am 16 20 mph 1001.1mb 72f 75f
9:54am 16 20 mph 1001mb 72f 75f
9:48am 18 22 mph 1000.9mb 72f 75f
9:42am 14 18 mph 1000.9mb 72f 74f
9:36am 16 18 mph 1001mb 72f 74f
9:30am 17 22 mph 1001mb 72f 74f
9:24am 16 22 mph 1001mb 72f 73f
9:18am 20 24 mph 1001.2mb 72f 73f
9:12am 16 22 mph 1001.2mb 72f 73f
9:06am 21 24 mph 1001.2mb 72f 73f
9:00am 21 24 mph 1001.3mb 72f 73f
8:54am 22 24 mph 1001.2mb 72f 73f
8:48am 21 25 mph 1001.1mb 72f 73f
8:42am 21 25 mph 1001.1mb 72f 73f
8:36am 21 23 mph 1001.1mb 72f 73f
8:30am 21 23 mph 1001mb 72f 73f
8:24am 22 25 mph 1000.9mb 72f 73f
8:18am 21 25 mph 1001mb 72f 73f
8:12am 23 28 mph 1000.9mb 72f 73f
8:06am 24 28 mph 1000.9mb 72f 73f
8:00am 26 31 mph 1000.8mb 72f 73f
7:54am 25 32 mph 1001mb 72f 73f
7:48am 24 28 mph 1001.1mb 72f 73f
7:42am 18 24 mph 1001.2mb 72f 73f
7:36am 22 25 mph 1001.4mb 72f 73f
7:30am 21 25 mph 1001.5mb 72f 73f
7:24am 17 21 mph 1001.6mb 72f 72f
7:18am 15 17 mph 1001.9mb 72f 73f
7:12am 16 20 mph 1001.9mb 72f 73f
7:06am 14 16 mph 1001.8mb 72f 73f
7:00am 15 16 mph 1001.7mb 72f 73f
6:54am 11 14 mph 1001.6mb 72f 72f
6:48am 13 14 mph 1002.1mb 72f 72f
6:42am 13 17 mph 1002mb 72f 72f
6:36am 16 18 mph 1002.2mb 72f 72f
6:30am 16 22 mph 1002.2mb 72f 72f
6:24am 18 22 mph 1002.5mb 72f 72f
6:18am 16 18 mph 1002.6mb 72f 73f
6:12am 13 15 mph 1002.6mb 72f 73f
6:06am 13 15 mph 1002.6mb 72f 73f
6:00am 14 16 mph 1002.6mb 72f 73f
5:54am 11 14 mph 1002.7mb 72f 72f
5:48am 13 15 mph 1002.6mb 72f 72f
5:42am 13 14 mph 1002.8mb 72f 72f
5:36am 10 11 mph 1002.8mb 72f 72f
5:30am 10 14 mph 1002.8mb 72f 72f
5:24am 14 16 mph 1002.8mb 72f 72f
5:18am 10 14 mph 1002.6mb 72f 72f
5:12am 11 14 mph 1002.7mb 72f 72f
5:06am 10 11 mph 1002.7mb 72f 72f
5:00am 8 11 mph 1002.9mb 72f 72f
4:54am 9 11 mph 1003.1mb 72f 72f
4:48am 9 11 mph 1003.2mb 72f 72f
4:42am 11 14 mph 1003.2mb 72f 72f
4:36am 11 13 mph 1003.3mb 72f 72f
4:30am 10 11 mph 1003.3mb 72f 72f
4:24am 10 11 mph 1003.3mb 72f 72f
4:18am 9 13 mph 1003.4mb 72f 72f
4:12am 11 13 mph 1003.3mb 72f 71f
4:06am 10 13 mph 1003.3mb 72f 71f
4:00am 10 13 mph 1003.2mb 72f 71f
3:54am 11 13 mph 1003.3mb 72f 72f
3:48am 10 11 mph 1003.4mb 72f 72f
3:42am 10 11 mph 1003.4mb 72f 72f
3:36am 8 9 mph 1003.4mb 72f 72f
3:30am 8 14 mph 1003.5mb 72f 72f
3:24am 13 14 mph 1003.6mb 72f 72f
3:18am 9 14 mph 1003.5mb 72f 72f
3:12am 11 14 mph 1003.5mb 72f 72f
3:06am 10 13 mph 1003.6mb 72f 72f
3:00am 10 11 mph 1003.6mb 72f 72f
2:54am 9 10 mph 1003.7mb 72f 72f
2:48am 8 13 mph 1003.7mb 72f 72f
2:42am 9 10 mph 1003.8mb 72f 72f
2:36am 9
mph
1003.9mb 72f 72f
2:30am 9 10 mph 1004mb 72f 72f
2:24am 9 10 mph 1003.9mb 72f 72f
2:18am 9 11 mph 1004mb 72f 72f
2:12am 10 11 mph 1004.1mb 72f 72f
2:06am 9 15 mph 1004.1mb 72f 72f
2:00am 11 14 mph 1004.3mb 72f 72f
1:54am 10 13 mph 1004.4mb 72f 72f
1:48am 10 13 mph 1004.4mb 72f 71f
1:42am 9 14 mph 1004.6mb 72f 71f
1:36am 14 17 mph 1004.6mb 72f 72f
1:30am 11 13 mph 1004.9mb 72f 71f
1:24am 11 15 mph 1004.9mb 72f 71f
1:18am 10 11 mph 1005mb 72f 71f
1:12am 9 10 mph 1005mb 71f 71f
1:06am 9 10 mph 1005mb 71f 71f
1:00am 8 13 mph 1005mb 71f 71f
12:54am 11 14 mph 1005.3mb 71f 71f
12:48am 13 15 mph 1005.4mb 71f 71f
12:42am 14 15 mph 1005.3mb 71f 71f
12:36am 14 16 mph 1005.3mb 71f 71f
12:30am 13 14 mph 1005.3mb 71f 70f
12:24am 13 16 mph 1005.4mb 71f 70f
12:18am 15 20 mph 1005.5mb 71f 71f
12:12am 17 18 mph 1005.6mb 71f 70f
12:06am 10 13 mph 1005.6mb 71f 70f
12:00am 9 13 mph 1005.7mb 71f 70f
Sun 07/27 11:54pm 13 14 mph 1005.8mb 71f 70f
11:48pm 9 10 mph 1005.7mb 71f 70f
11:42pm 9 10 mph 1005.6mb 71f 71f
11:36pm 6 7 mph 1005.5mb 71f 71f
11:30pm 7 8 mph 1005.6mb 71f 71f
11:24pm 6
mph
1005.7mb 71f 71f
11:18pm 5 6 mph 1005.7mb 71f 71f
11:12pm 5
mph
1005.6mb 71f 71f
11:06pm 3 5 mph 1005.5mb 71f 71f
11:00pm 3 8 mph 1005.6mb 72f 72f
10:54pm 7 9 mph 1005.7mb 72f 72f
10:48pm 6
mph
1005.7mb 72f 72f
10:42pm 6
mph
1005.9mb 72f 72f
10:36pm 5 6 mph 1005.8mb 72f 72f
10:30pm 3 7 mph 1005.8mb 72f 72f
10:24pm 5 6 mph 1005.8mb 72f 72f
10:18pm 6
mph
1005.7mb 72f 72f
10:12pm 5 7 mph 1005.8mb 72f 72f
10:06pm 7 9 mph 1005.8mb 72f 72f
10:00pm 9 11 mph 1005.6mb 72f 72f
9:54pm 9 11 mph 1005.3mb 72f 72f
9:48pm 9 11 mph 1005.2mb 72f 72f
9:42pm 11 14 mph 1005mb 72f 72f
9:36pm 11 15 mph 1005mb 72f 72f
9:30pm 13 15 mph 1004.7mb 72f 72f
9:24pm 14 15 mph 1004.9mb 73f 72f
9:18pm 13 15 mph 1005.2mb 73f 72f
9:12pm 9 13 mph 1005.4mb 73f 72f
9:06pm 10 13 mph 1005.4mb 73f 72f
9:00pm 13 16 mph 1005.4mb 73f 72f
8:54pm 13 15 mph 1005.5mb 73f 72f
8:48pm 11 15 mph 1005.7mb 73f 72f
8:42pm 14 15 mph 1005.7mb 73f 72f
8:36pm 14 15 mph 1005.7mb 73f 72f
8:30pm 13 14 mph 1005.7mb 73f 72f
8:24pm 13 14 mph 1005.8mb 73f 72f
8:18pm 13 14 mph 1005.9mb 73f 72f
8:12pm 11 13 mph 1005.7mb 73f 72f
8:06pm 9 10 mph 1005.9mb 73f 72f
8:00pm 9 10 mph 1006mb 73f 73f
7:54pm 8 9 mph 1005.9mb 73f 73f
7:48pm 7 9 mph 1005.7mb 73f 72f
7:42pm 7 8 mph 1005.6mb 73f 73f
7:36pm 6 8 mph 1005.6mb 73f 73f
7:30pm 7 9 mph 1005.8mb 73f 73f
7:24pm 8 13 mph 1005.7mb 73f 73f
7:18pm 9 11 mph 1005.4mb 73f 73f
7:12pm 9 10 mph 1005.4mb 73f 73f
7:06pm 10 14 mph 1005.6mb 73f 73f
7:00pm 11 14 mph 1005.5mb 73f 73f
6:54pm 14 17 mph 1005.4mb 73f 73f
6:48pm 14 17 mph 1005.5mb 73f 73f
6:42pm 14 18 mph 1005.6mb 73f 73f
6:36pm 16 21 mph 1005.7mb 73f 74f
6:30pm 16 18 mph 1005.5mb 73f 74f
6:24pm 15 17 mph 1005.7mb 73f 74f
6:18pm 13 15 mph 1005.8mb 73f 73f
6:12pm 13 16 mph 1005.7mb 73f 73f
6:06pm 13 17 mph 1005.7mb 73f 73f
6:00pm 14 17 mph 1005.7mb 73f 73f
5:54pm 15 18 mph 1005.6mb 73f 73f
5:48pm 16 18 mph 1005.7mb 73f 73f
5:42pm 16 20 mph 1005.7mb 73f 73f
5:36pm 16 18 mph 1005.6mb 73f 73f
5:30pm 15 17 mph 1005.8mb 73f 73f
5:24pm 14 18 mph 1005.8mb 73f 73f
5:18pm 16 18 mph 1005.9mb 73f 73f
5:12pm 16 20 mph 1006mb 73f 73f
5:06pm 15 20 mph 1006mb 73f 73f
5:00pm 17 21 mph 1006.1mb 72f 73f
4:54pm 17 22 mph 1006.2mb 72f 73f
4:48pm 18 22 mph 1006.3mb 72f 73f
4:42pm 17 21 mph 1006.2mb 72f 73f
4:36pm 15 21 mph 1006.3mb 72f 73f
4:30pm 18 22 mph 1006.2mb 72f 73f
4:24pm 14 17 mph 1006.4mb 72f 72f
4:18pm 16 21 mph 1006.4mb 72f 72f
4:12pm 15 20 mph 1006.4mb 72f 72f
4:06pm 16 18 mph 1006.5mb 73f 72f
4:00pm 16 21 mph 1006.6mb 73f 73f
3:54pm 18 20 mph 1006.6mb 73f 73f
3:48pm 14 17 mph 1006.7mb 72f 72f
3:42pm 15 18 mph 1006.7mb 72f 72f
3:36pm 15 18 mph 1006.8mb 72f 72f
3:30pm 15 18 mph 1006.8mb 72f 71f
3:24pm 16 21 mph 1006.8mb 72f 71f
3:18pm 18 21 mph 1006.8mb 72f 72f
3:12pm 17 22 mph 1006.9mb 72f 71f
3:06pm 20 22 mph 1006.9mb 72f 71f
3:00pm 20 23 mph 1006.9mb 72f 71f
2:54pm 18 22 mph 1006.8mb 72f 71f
2:48pm 21 23 mph 1006.9mb 72f 71f
2:42pm 20 22 mph 1006.9mb 72f 71f
2:36pm 17 21 mph 1007.1mb 72f 71f
2:30pm 17 20 mph 1007.4mb 72f 71f
2:24pm 15 18 mph 1007.6mb 72f 72f
2:18pm 16 18 mph 1007.5mb 72f 72f
2:12pm 16 20 mph 1007.7mb 72f 72f
2:06pm 18 22 mph 1007.7mb 72f 72f
2:00pm 18 24 mph 1007.7mb 72f 72f
1:54pm 20 22 mph 1007.6mb 72f 72f
1:48pm 18 22 mph 1007.8mb 72f 72f
1:42pm 16 21 mph 1008mb 72f 72f
1:36pm 16 20 mph 1008mb 72f 72f
1:30pm 16 20 mph 1008mb 72f 72f
1:24pm 18 22 mph 1007.9mb 72f 71f
1:18pm 15 18 mph 1008.1mb 72f 71f
1:12pm 14 16 mph 1008.3mb 72f 71f
1:06pm 15 20 mph 1008.2mb 72f 71f
1:00pm 15 18 mph 1008.4mb 72f 71f
12:54pm 16 22 mph 1008.3mb 72f 71f
12:48pm 16 20 mph 1008.2mb 72f 71f
12:42pm 17 22 mph 1008.1mb 72f 71f
12:36pm 18 24 mph 1008.2mb 72f 71f
12:30pm 21 25 mph 1008.3mb 72f 71f
12:24pm 18 22 mph 1008.5mb 72f 71f
12:18pm 18 21 mph 1008.6mb 71f 72f
12:12pm 17 20 mph 1008.8mb 72f 72f
12:06pm 17 22 mph 1008.8mb 72f 72f
12:00pm 15 18 mph 1008.9mb 72f 72f
11:54am 15 21 mph 1009mb 72f 72f
11:48am 18 21 mph 1009.1mb 72f 72f
11:42am 17 21 mph 1009.1mb 72f 72f
11:36am 16 20 mph 1009.1mb 72f 72f
11:30am 17 21 mph 1009.2mb 71f 72f
11:24am 17 22 mph 1009.3mb 71f 71f
11:18am 20 24 mph 1009.5mb 71f 72f
11:12am 17 21 mph 1009.4mb 71f 72f
11:06am 20 23 mph 1009.4mb 71f 72f
11:00am 20 23 mph 1009.4mb 71f 72f
10:54am 21 23 mph 1009.3mb 71f 73f
10:48am 20 23 mph 1009.4mb 71f 73f
10:42am 20 23 mph 1009.5mb 71f 73f
10:36am 20 22 mph 1009.5mb 71f 72f
10:30am 20 23 mph 1009.5mb 72f 73f
10:24am 20 22 mph 1009.4mb 72f 72f
10:18am 17 20 mph 1009.4mb 72f 72f
10:12am 18 21 mph 1009.5mb 72f 73f
10:06am 16 18 mph 1009.5mb 73f 74f
10:00am 16 18 mph 1009.4mb 73f 73f
9:54am 15 18 mph 1009.5mb 73f 73f
9:48am 14 18 mph 1009.6mb 73f 73f
9:42am 14 24 mph 1009.7mb 73f 73f
9:36am 20 24 mph 1009.6mb 73f 74f
9:30am 15 22 mph 1009.6mb 73f 73f
9:24am 17 21 mph 1009.8mb 73f 73f
9:18am 18 23 mph 1009.8mb 73f 74f
9:12am 18 22 mph 1009.9mb 73f 74f
9:06am 16 20 mph 1009.9mb 73f 74f
9:00am 18 21 mph 1010mb 73f 73f
8:54am 16 18 mph 1010.1mb 73f 74f
8:48am 17 23 mph 1010mb 73f 73f
8:42am 15 17 mph 1010mb 73f 73f
8:36am 15 20 mph 1010mb 73f 73f
8:30am 18 22 mph 1010mb 73f 74f
8:24am 18 22 mph 1010mb 73f 73f
8:18am 17 21 mph 1010mb 73f 73f
8:12am 18 22 mph 1010.1mb 73f 73f
8:06am 15 18 mph 1010.1mb 73f 73f
8:00am 15 18 mph 1010.2mb 73f 73f
7:54am 15 17 mph 1010.3mb 73f 73f
7:48am 14 16 mph 1010.3mb 73f 73f
7:42am 13 15 mph 1010.3mb 73f 73f
7:36am 11 15 mph 1010.4mb 73f 73f
7:30am 10 14 mph 1010.4mb 73f 73f
7:24am 13 15 mph 1010.3mb 73f 72f
7:18am 14 15 mph 1010.5mb 73f 72f
7:12am 13 14 mph 1010.5mb 73f 72f
7:06am 11 14 mph 1010.5mb 73f 72f
7:00am 9 13 mph 1010.5mb 73f 71f
6:54am 10 13 mph 1010.5mb 73f 71f
6:48am 10 11 mph 1010.6mb 73f 71f
6:42am 8 9 mph 1010.6mb 73f 71f
6:36am 8 10 mph 1010.7mb 73f 71f
6:30am 9 10 mph 1010.8mb 73f 71f
6:24am 9 10 mph 1010.9mb 73f 70f
6:18am 8 10 mph 1010.8mb 73f 70f
6:12am 8 9 mph 1010.8mb 73f 70f
6:06am 8 9 mph 1010.8mb 73f 70f
6:00am 8 9 mph 1010.7mb 73f 70f
5:54am 9 11 mph 1010.8mb 73f 70f
5:48am 9 11 mph 1010.8mb 73f 70f
5:42am 9 11 mph 1010.7mb 73f 70f
5:36am 9 10 mph 1010.8mb 73f 70f
5:30am 9 10 mph 1010.8mb 73f 70f
5:24am 10 11 mph 1010.9mb 73f 70f
5:18am 9 13 mph 1010.8mb 73f 70f
5:12am 8 10 mph 1010.7mb 73f 70f
5:06am 8 10 mph 1010.9mb 73f 70f
5:00am 9 10 mph 1011mb 73f 70f
4:54am 9 10 mph 1011mb 73f 70f
4:48am 7 10 mph 1011mb 73f 70f
4:42am 10 11 mph 1011.2mb 73f 70f
4:36am 11 13 mph 1011.2mb 73f 70f
4:30am 11 15 mph 1011.3mb 73f 70f
4:24am 11 14 mph 1011.4mb 73f 70f
4:18am 13 15 mph 1011.4mb 73f 70f
4:12am 13 15 mph 1011.4mb 73f 70f
4:06am 11 14 mph 1011.2mb 73f 70f
4:00am 13 14 mph 1011.4mb 73f 70f
3:54am 11 14 mph 1011.3mb 73f 70f
3:48am 13 14 mph 1011.3mb 73f 70f
3:42am 11 13 mph 1011.4mb 73f 70f
3:36am 10 14 mph 1011.3mb 73f 70f
3:30am 10 13 mph 1011.3mb 73f 70f
3:24am 10 13 mph 1011.4mb 73f 70f
3:18am 10 13 mph 1011.3mb 73f 70f
3:12am 10 11 mph 1011.3mb 73f 70f
3:06am 11 13 mph 1011.5mb 73f 70f
3:00am 9 11 mph 1011.7mb 73f 70f
2:54am 10
mph
1011.7mb 73f 70f
2:48am 9 10 mph 1011.8mb 73f 70f
2:42am 9 11 mph 1011.8mb 73f 70f
2:36am 9 11 mph 1012mb 73f 70f
2:30am 10
mph
1012mb 73f 69f
2:24am 8 10 mph 1012.1mb 73f 69f
2:18am 8 9 mph 1012.1mb 73f 69f
2:12am 7 8 mph 1012.1mb 73f 69f
2:06am 8 9 mph 1012.2mb 73f 69f
2:00am 7 8 mph 1012.2mb 73f 69f
1:54am 7 9 mph 1012.2mb 73f 69f
1:48am 8 9 mph 1012.2mb 73f 69f
1:42am 9
mph
1012.3mb 73f 69f
1:36am 9 10 mph 1012.4mb 73f 69f
1:30am 9 10 mph 1012.5mb 73f 69f
1:24am 9 10 mph 1012.4mb 73f 69f
1:18am 9 11 mph 1012.6mb 73f 69f
1:12am 10 11 mph 1012.6mb 73f 69f
1:06am 10 11 mph 1012.7mb 73f 69f
1:00am 10 13 mph 1012.8mb 73f 69f
12:54am 10 11 mph 1012.8mb 73f 69f
12:48am 10 13 mph 1012.8mb 73f 69f
12:42am 10 13 mph 1012.8mb 73f 69f
12:36am 11 13 mph 1012.9mb 73f 70f
12:30am 10 14 mph 1012.8mb 72f 70f
12:24am 10 13 mph 1012.7mb 72f 69f
12:18am 10 11 mph 1012.7mb 72f 70f
12:12am 10 13 mph 1012.8mb 71f 69f
12:06am 9 11 mph 1012.9mb 71f 70f
12:00am 10 13 mph 1012.9mb 71f 70f
Sat 07/26 11:54pm 10 13 mph 1013mb 71f 70f
11:48pm 11 14 mph 1012.9mb 71f 70f
11:42pm 13 14 mph 1013.1mb 71f 70f
11:36pm 14 15 mph 1013.1mb 72f 70f
11:30pm 13 15 mph 1013.1mb 72f 70f
11:24pm 14 15 mph 1013.1mb 72f 70f
11:18pm 14 16 mph 1013.1mb 72f 70f
11:12pm 13 16 mph 1013.2mb 72f 70f
11:06pm 14 15 mph 1013.1mb 72f 70f
11:00pm 14 15 mph 1013.2mb 72f 70f
10:54pm 13 16 mph 1013.2mb 72f 70f
10:48pm 13 16 mph 1013.2mb 72f 70f
10:42pm 14 16 mph 1013.3mb 72f 70f
10:36pm 15 16 mph 1013.3mb 71f 70f
10:30pm 14 18 mph 1013.3mb 71f 70f
10:24pm 15 18 mph 1013.3mb 71f 70f
10:18pm 16 17 mph 1013.3mb 71f 70f
10:12pm 16 18 mph 1013.4mb 72f 70f
10:06pm 15 17 mph 1013.5mb 72f 70f
10:00pm 16 18 mph 1013.4mb 72f 70f
9:54pm 15 17 mph 1013.4mb 72f 70f
9:48pm 14 17 mph 1013.4mb 72f 70f
9:42pm 14 16 mph 1013.4mb 72f 70f
9:36pm 14 15 mph 1013.4mb 72f 70f
9:30pm 14 15 mph 1013.4mb 72f 70f
9:24pm 13 15 mph 1013.4mb 72f 70f
9:18pm 13 16 mph 1013.3mb 72f 71f
9:12pm 14 15 mph 1013.3mb 73f 71f
9:06pm 11 14 mph 1013.2mb 73f 71f
9:00pm 13 16 mph 1013.2mb 73f 71f
8:54pm 14 15 mph 1013.2mb 73f 71f
8:48pm 13 15 mph 1013.1mb 73f 71f
8:42pm 13 15 mph 1013mb 74f 71f
8:36pm 13 15 mph 1013.1mb 74f 71f
8:30pm 11 14 mph 1013mb 74f 71f
8:24pm 11 14 mph 1013mb 74f 72f
8:18pm 11 14 mph 1012.9mb 74f 72f
8:12pm 13 15 mph 1012.9mb 74f 72f
8:06pm 14 16 mph 1012.9mb 74f 72f
8:00pm 14 16 mph 1013mb 74f 72f
7:54pm 14 15 mph 1013mb 74f 72f
7:48pm 11 14 mph 1013mb 74f 72f
7:42pm 11 14 mph 1013mb 74f 73f
7:36pm 14 15 mph 1013mb 74f 73f
7:30pm 11 15 mph 1013mb 74f 73f
7:24pm 13 15 mph 1013mb 74f 73f
7:18pm 14 16 mph 1012.9mb 74f 73f
7:12pm 11 15 mph 1013mb 74f 73f
7:06pm 13 17 mph 1013mb 74f 73f
7:00pm 13 16 mph 1013.1mb 74f 73f
6:54pm 14 18 mph 1013.1mb 74f 73f
6:48pm 14 17 mph 1013.1mb 74f 73f
6:42pm 14 17 mph 1013.1mb 74f 73f
6:36pm 15 20 mph 1013.1mb 74f 73f
6:30pm 16 22 mph 1013.1mb 74f 73f
6:24pm 17 22 mph 1013.1mb 74f 73f
6:18pm 15 18 mph 1013.1mb 74f 73f
6:12pm 14 17 mph 1013.1mb 74f 73f
6:06pm 15 20 mph 1013.1mb 74f 73f
6:00pm 15 17 mph 1013.1mb 74f 73f
5:54pm 14 17 mph 1013.1mb 74f 73f
5:48pm 15 17 mph 1013.2mb 74f 73f
5:42pm 14 16 mph 1013.3mb 74f 72f
5:36pm 14 15 mph 1013.4mb 74f 72f
5:30pm 14 16 mph 1013.4mb 74f 72f
5:24pm 14 16 mph 1013.4mb 74f 72f
5:18pm 14 16 mph 1013.5mb 74f 72f
5:12pm 14 18 mph 1013.6mb 74f 72f
5:06pm 15 18 mph 1013.6mb 74f 72f
5:00pm 15 17 mph 1013.6mb 74f 72f
4:54pm 15 20 mph 1013.6mb 74f 72f
4:48pm 15 18 mph 1013.6mb 74f 72f
4:42pm 14 17 mph 1013.6mb 74f 72f
4:36pm 15 18 mph 1013.6mb 74f 72f
4:30pm 17 21 mph 1013.5mb 74f 72f
4:24pm 17 20 mph 1013.5mb 74f 73f
4:18pm 16 22 mph 1013.5mb 74f 73f
4:12pm 17 21 mph 1013.5mb 74f 73f
4:06pm 18 21 mph 1013.4mb 74f 73f
4:00pm 17 21 mph 1013.4mb 74f 73f
3:54pm 18 22 mph 1013.5mb 74f 73f
3:48pm 20 22 mph 1013.5mb 74f 74f
3:42pm 16 20 mph 1013.6mb 74f 74f
3:36pm 16 18 mph 1013.6mb 74f 74f
3:30pm 17 21 mph 1013.6mb 74f 74f
3:24pm 16 20 mph 1013.6mb 74f 74f
3:18pm 15 17 mph 1013.6mb 75f 74f
3:12pm 17 20 mph 1013.6mb 75f 74f
3:06pm 15 20 mph 1013.6mb 75f 74f
3:00pm 20 22 mph 1013.6mb 75f 74f
2:54pm 20 22 mph 1013.7mb 75f 75f
2:48pm 17 20 mph 1013.7mb 75f 75f
2:42pm 20 22 mph 1013.7mb 75f 75f
2:36pm 20 22 mph 1013.7mb 75f 75f
2:30pm 20 23 mph 1013.7mb 75f 75f
2:24pm 20 22 mph 1013.7mb 75f 75f
2:18pm 15 20 mph 1013.7mb 74f 76f
2:12pm 15 21 mph 1013.8mb 74f 76f
2:06pm 16 20 mph 1013.8mb 74f 76f
2:00pm 18 22 mph 1013.9mb 74f 76f
1:54pm 16 22 mph 1013.9mb 74f 76f
1:48pm 17 21 mph 1013.9mb 74f 76f
1:42pm 17 21 mph 1014mb 74f 76f
1:36pm 15 23 mph 1014mb 74f 77f
1:30pm 20 25 mph 1013.9mb 74f 78f
1:24pm 20 23 mph 1013.9mb 75f 78f
1:18pm 18 22 mph 1014mb 75f 78f
1:12pm 18 26 mph 1014mb 75f 78f
1:06pm 17 22 mph 1014mb 74f 78f
1:00pm 17 22 mph 1014mb 75f 78f
12:54pm 14 18 mph 1014.2mb 75f 78f
12:48pm 16 18 mph 1014.1mb 74f 77f
12:42pm 13 21 mph 1014.2mb 74f 77f
12:36pm 15 21 mph 1014.2mb 74f 77f
12:30pm 17 21 mph 1014.2mb 74f 78f
12:24pm 14 21 mph 1014.4mb 74f 77f
12:18pm 17 21 mph 1014.3mb 74f 77f
12:12pm 14 16 mph 1014.5mb 74f 77f
12:06pm 14 16 mph 1014.6mb 74f 77f
12:00pm 8 11 mph 1014.7mb 74f 77f
11:54am 13 16 mph 1014.7mb 73f 76f
11:48am 11 13 mph 1014.7mb 73f 76f
11:42am 9 11 mph 1014.8mb 73f 76f
11:36am 8 11 mph 1014.9mb 72f 76f
11:30am 9 11 mph 1015mb 72f 76f
11:24am 8 11 mph 1015.1mb 72f 76f
11:18am 9 11 mph 1015.1mb 72f 76f
11:12am 9 13 mph 1015.1mb 72f 76f
11:06am 10 13 mph 1015.1mb 72f 76f
11:00am 11 13 mph 1015.1mb 72f 75f
10:54am 7 8 mph 1015.1mb 72f 76f
10:48am 6 11 mph 1015.1mb 72f 75f
10:42am 2 5 mph 1015.2mb 72f 76f
10:36am 3 5 mph 1015.2mb 73f 75f
10:30am 5 7 mph 1015.2mb 73f 75f
10:24am 6 9 mph 1015.2mb 73f 75f
10:18am 7 9 mph 1015.2mb 73f 75f
10:12am 9 13 mph 1015.3mb 73f 74f
10:06am 9 10 mph 1015.4mb 73f 74f
10:00am 7 10 mph 1015.4mb 73f 74f
9:54am 7 11 mph 1015.4mb 73f 73f
9:48am 10 11 mph 1015.4mb 73f 73f
9:42am 10 14 mph 1015.4mb 73f 72f
9:36am 11 14 mph 1015.4mb 73f 72f
9:30am 11 14 mph 1015.5mb 73f 71f
9:24am 13 15 mph 1015.6mb 73f 71f
9:18am 13 17 mph 1015.6mb 73f 71f
9:12am 14 16 mph 1015.5mb 73f 71f
9:06am 14 15 mph 1015.6mb 73f 71f
9:00am 13 15 mph 1015.7mb 73f 71f
8:54am 14 16 mph 1015.7mb 73f 71f
8:48am 13 14 mph 1015.8mb 73f 71f
8:42am 11 14 mph 1015.8mb 74f 71f
8:36am 10 14 mph 1015.9mb 74f 71f
8:30am 11 14 mph 1015.9mb 74f 71f
8:24am 13 14 mph 1015.9mb 74f 70f
8:18am 14 15 mph 1015.8mb 74f 70f
8:12am 13 15 mph 1015.9mb 74f 70f
8:06am 14 15 mph 1015.8mb 74f 70f
8:00am 14 15 mph 1015.8mb 74f 70f
7:54am 11 14 mph 1015.7mb 74f 69f
7:48am 11 13 mph 1015.7mb 74f 69f
7:42am 10 11 mph 1015.6mb 74f 69f
7:36am 10 13 mph 1015.7mb 74f 68f
7:30am 11 13 mph 1015.7mb 74f 68f
7:24am 10 13 mph 1015.7mb 74f 68f
7:18am 10 13 mph 1015.6mb 74f 68f
7:12am 10 13 mph 1015.6mb 74f 67f
7:06am 10 13 mph 1015.6mb 74f 67f
7:00am 11 14 mph 1015.6mb 74f 67f
6:54am 10 13 mph 1015.5mb 74f 66f
6:48am 10 13 mph 1015.6mb 74f 66f
6:42am 10 13 mph 1015.5mb 74f 66f
6:36am 13 14 mph 1015.6mb 74f 66f
6:30am 11 13 mph 1015.5mb 74f 66f
6:24am 11 13 mph 1015.5mb 74f 66f
6:18am 10 11 mph 1015.5mb 74f 66f
6:12am 9 11 mph 1015.4mb 74f 66f
6:06am 10 11 mph 1015.4mb 74f 66f
6:00am 9 10 mph 1015.4mb 74f 66f
5:54am 9 11 mph 1015.4mb 74f 65f
5:48am 9 11 mph 1015.4mb 74f 65f
5:42am 9 11 mph 1015.4mb 74f 65f
5:36am 9 11 mph 1015.4mb 74f 65f
5:30am 10 11 mph 1015.4mb 74f 65f
5:24am 10 11 mph 1015.4mb 74f 65f
5:18am 10 11 mph 1015.4mb 74f 65f
5:12am 10 13 mph 1015.4mb 74f 66f
5:06am 10 13 mph 1015.3mb 74f 65f
5:00am 10 11 mph 1015.2mb 74f 66f
4:54am 10 11 mph 1015.2mb 74f 66f
4:48am 9 11 mph 1015.1mb 74f 66f
4:42am 9 10 mph 1015.1mb 74f 66f
4:36am 8 11 mph 1015.1mb 74f 66f
4:30am 9 11 mph 1015.2mb 74f 66f
4:24am 9 11 mph 1015.2mb 74f 66f
4:18am 9 10 mph 1015.2mb 74f 66f
4:12am 10 11 mph 1015.1mb 74f 66f
4:06am 9 11 mph 1015.2mb 74f 66f
4:00am 11 14 mph 1015.3mb 74f 66f
3:54am 10 13 mph 1015.3mb 74f 66f
3:48am 10 13 mph 1015.3mb 74f 66f
3:42am 11 13 mph 1015.2mb 74f 66f
3:36am 9 10 mph 1015.3mb 74f 66f
3:30am 10 11 mph 1015.3mb 74f 66f
3:24am 9 10 mph 1015.2mb 74f 66f
3:18am 8 10 mph 1015.2mb 74f 66f
3:12am 9 11 mph 1015.2mb 74f 66f
3:06am 10 13 mph 1015.1mb 75f 66f
3:00am 10 11 mph 1015.1mb 75f 66f
2:54am 9 11 mph 1015.2mb 75f 66f
2:48am 10 13 mph 1015.2mb 75f 66f
2:42am 10 13 mph 1015.1mb 75f 67f
2:36am 10 11 mph 1015.1mb 75f 67f
2:30am 11 13 mph 1015.1mb 75f 67f
2:24am 11 14 mph 1015.1mb 75f 67f
2:18am 11 13 mph 1015.2mb 75f 67f
2:12am 11 15 mph 1015.2mb 75f 67f
2:06am 14 15 mph 1015.3mb 75f 67f
2:00am 13 14 mph 1015.3mb 75f 67f
1:54am 13 14 mph 1015.4mb 74f 67f
1:48am  -  mph 1015.4mb 74f 67f
1:42am  -  mph 1015.4mb 74f 67f
1:36am  -  mph 1015.4mb 74f 67f
1:30am 11 15 mph 1015.4mb 74f 67f
1:24am 11 14 mph 1015.4mb 74f 67f
1:18am 14 16 mph 1015.4mb 74f 67f
1:12am 13 15 mph 1015.4mb 74f 68f
1:06am 14 17 mph 1015.5mb 74f 67f
1:00am 15 17 mph 1015.6mb 74f 68f
12:54am 14 16 mph 1015.6mb 74f 68f
12:48am 14 17 mph 1015.7mb 74f 68f
12:42am 14 16 mph 1015.6mb 74f 67f
12:36am 14 16 mph 1015.6mb 74f 68f
12:30am 14 15 mph 1015.6mb 74f 68f
12:24am 13 15 mph 1015.6mb 74f 68f
12:18am 13 16 mph 1015.5mb 74f 68f
12:12am 13 15 mph 1015.5mb 74f 68f
12:06am 13 16 mph 1015.7mb 74f 68f
12:00am 15 16 mph 1015.6mb 74f 68f
Fri 07/25 11:54pm 13 16 mph 1015.7mb 74f 68f
11:48pm 13 15 mph 1015.7mb - 68f
11:42pm 14 16 mph 1015.7mb - 68f
11:36pm 14 15 mph 1015.7mb - 68f
11:30pm 13 16 mph 1015.7mb 73f 69f
11:24pm 13 16 mph 1015.7mb 73f 68f
11:18pm 13 16 mph 1015.7mb 73f 69f
11:12pm 13 16 mph 1015.6mb 73f 69f
11:06pm 14 16 mph 1015.6mb 73f 69f
11:00pm 14 15 mph 1015.7mb 73f 68f
10:54pm 13 15 mph 1015.7mb 73f 68f
10:48pm 11 15 mph 1015.7mb 74f -
10:42pm 14 15 mph 1015.7mb - 68f
10:36pm  -  mph 1015.6mb 74f 69f
10:30pm  -  mph - - 69f
10:24pm 13 15 mph - 74f 69f
10:18pm 13 14 mph - 74f 69f
10:12pm 14 15 mph 1015.6mb 74f 69f
10:06pm 13 15 mph 1015.6mb 74f 69f
10:00pm 13 15 mph 1015.5mb 74f 69f
9:54pm 13 16 mph 1015.5mb 74f 69f
9:48pm  -  mph 1015.5mb 74f 69f
9:42pm  -  mph 1015.5mb 74f 69f
9:36pm  -  mph 1015.5mb 74f 70f
9:30pm 13 16 mph 1015.4mb 75f 70f
9:24pm 14 17 mph 1015.4mb 75f 70f
9:18pm 14 15 mph 1015.4mb 75f 70f
9:12pm 14 16 mph 1015.3mb 75f 70f
9:06pm 14 15 mph 1015.2mb 75f 70f
9:00pm 13 14 mph 1015.1mb 75f 70f
8:54pm 14 15 mph 1015mb 75f 70f
8:48pm 13 14 mph 1015mb 75f 70f
8:42pm 13 15 mph 1014.9mb 76f 70f
8:36pm 13 15 mph 1014.9mb 76f 70f
8:30pm 13 14 mph 1014.8mb 76f 70f
8:24pm 13 15 mph 1014.8mb 76f 71f
8:18pm 13 15 mph 1014.8mb 76f 71f
8:12pm 11 14 mph 1014.7mb 76f 71f
8:06pm 11 14 mph 1014.7mb 76f 71f
8:00pm 13 14 mph 1014.6mb 76f 71f
7:54pm 9 13 mph 1014.6mb 76f 72f
7:48pm 10 11 mph 1014.6mb 76f 72f
7:42pm 9 11 mph 1014.6mb 76f 72f
7:36pm 9 10 mph 1014.5mb 76f 73f
7:30pm 9 10 mph 1014.5mb 76f 73f
7:24pm 9 11 mph 1014.4mb 76f 73f
7:18pm 10 13 mph 1014.4mb 76f 73f
7:12pm 10 11 mph 1014.3mb 76f 73f
7:06pm 10 14 mph 1014.2mb 76f 74f
7:00pm 10 13 mph 1014.2mb 76f 74f
6:54pm 9 10 mph 1014.2mb 76f 74f
6:48pm 10 13 mph 1014.2mb 76f 74f
6:42pm 9 11 mph 1014.2mb 76f 74f
6:36pm 10 11 mph 1014.2mb 76f 75f
6:30pm 10 13 mph 1014.2mb 76f 75f
6:24pm 11 13 mph 1014.2mb 76f 75f
6:18pm 10 13 mph 1014.2mb 76f 75f
6:12pm 10 13 mph 1014.3mb 76f 75f
6:06pm 11 14 mph 1014.3mb 76f 75f
6:00pm 14 15 mph 1014.3mb 76f 75f
5:54pm 11 14 mph 1014.2mb 76f 75f
5:48pm 13 14 mph 1014.1mb 76f 75f
5:42pm 11 14 mph 1014.1mb 76f 75f
5:36pm 13 14 mph 1014.1mb 76f 75f
5:30pm 14 15 mph 1014.1mb 76f 75f
5:24pm 13 15 mph 1014.1mb 76f 76f
5:18pm 15 16 mph 1014.1mb 76f 76f
5:12pm 14 15 mph 1014.1mb 76f 76f
5:06pm 14 15 mph 1014.1mb 76f 76f
5:00pm 13 15 mph 1014.1mb 76f 76f
4:54pm 14 16 mph 1014mb 76f 76f
4:48pm 15 17 mph 1014mb 76f 76f
4:42pm 14 15 mph 1014.1mb 76f 76f
4:36pm 13 15 mph 1014mb 76f 77f
4:30pm 14 16 mph 1014mb 76f 76f
4:24pm 14 16 mph 1014mb 76f 75f
4:18pm 14 16 mph 1014mb 76f 76f
4:12pm 9 10 mph 1014.1mb 75f 77f
4:06pm 9
mph
1014.1mb 75f 76f
4:00pm 7 8 mph 1014.1mb 75f 77f
3:54pm 8 9 mph 1014.2mb 75f 77f
3:48pm 7
mph
1014.2mb 75f 77f
3:42pm 6
mph
1014.3mb 75f 77f
3:36pm 5 6 mph 1014.2mb 75f 77f
3:30pm 6 7 mph 1014.3mb 75f 77f
3:24pm 6
mph
1014.3mb 75f 77f
3:18pm 6
mph
1014.3mb 75f 77f
3:12pm 5 6 mph 1014.2mb 75f 76f
3:06pm 6 7 mph 1014.1mb 75f 76f
3:00pm 7 8 mph 1014.1mb 75f 76f
2:54pm 7 8 mph 1014.1mb 75f 76f
2:48pm 6 7 mph 1014.1mb 75f 76f
2:42pm 6 7 mph 1014.2mb 75f 75f
2:36pm 5 6 mph 1014.2mb 75f 76f
2:30pm 5 6 mph 1014.2mb 75f 75f
2:24pm 5 7 mph 1014.2mb 75f 75f
2:18pm 6
mph
1014.1mb 75f 75f
2:12pm 6 8 mph 1014.2mb 75f 75f
2:06pm 7 8 mph 1014.2mb 75f 75f
2:00pm 7 9 mph 1014.2mb 75f 75f
1:54pm 7 10 mph 1014.3mb 75f 75f
1:48pm 9 10 mph 1014.3mb 75f 75f
1:42pm 8 9 mph 1014.3mb 74f 75f
1:36pm 7 10 mph 1014.3mb 74f 74f
1:30pm 8 10 mph 1014.3mb 74f 74f
1:24pm 8 10 mph 1014.4mb 74f 74f
1:18pm 7 9 mph 1014.4mb 74f 74f
1:12pm 8 9 mph 1014.5mb 74f 74f
1:06pm 8 9 mph 1014.6mb 74f 74f
1:00pm 3 6 mph 1014.6mb 74f 74f
12:54pm 6
mph
1014.7mb 74f 73f
12:48pm 5 6 mph 1014.8mb 74f 73f
12:42pm 6 8 mph 1014.8mb 74f 73f
12:36pm 6 8 mph 1014.7mb 74f 73f
12:30pm 7 8 mph 1014.8mb 74f 73f
12:24pm 6 9 mph 1014.7mb 74f 73f
12:18pm 8 9 mph 1014.7mb 74f 73f
12:12pm 5 6 mph 1014.8mb 74f 73f
12:06pm 2 5 mph 1014.9mb 74f 73f
12:00pm 5 7 mph 1015mb 74f 73f
11:54am 6 7 mph 1015mb 74f 72f
11:48am 6 7 mph 1015mb 74f 72f
11:42am 6 8 mph 1014.9mb 73f 72f
11:36am 6 7 mph 1015mb 73f 72f
11:30am 6 8 mph 1015mb 73f 71f
11:24am 7 8 mph 1015.1mb 73f 71f
11:18am 7 9 mph 1015.1mb 73f 71f
11:12am 7 9 mph 1015.1mb 73f 71f
11:06am 8 10 mph 1015.2mb 73f 72f
11:00am 7 9 mph 1015.3mb 73f 71f
10:54am 9 10 mph 1015.3mb 73f 71f
10:48am 10 11 mph 1015.3mb 73f 71f
10:42am 9 14 mph 1015.4mb 73f 71f
10:36am 11 13 mph 1015.4mb 73f 71f
10:30am 9 13 mph 1015.4mb 73f 71f
10:24am 9 13 mph 1015.4mb 73f 71f
10:18am 10 14 mph 1015.5mb 73f 71f
10:12am 10 14 mph 1015.5mb 73f 70f
10:06am 8 13 mph 1015.4mb 73f 70f
10:00am 9 13 mph 1015.3mb 73f 70f
9:54am 10 14 mph 1015.1mb 73f 70f
9:48am 11 14 mph 1015mb 73f 70f
9:42am 8 11 mph 1015mb 73f 70f
9:36am 8 11 mph 1015mb 73f 70f
9:30am 9 13 mph 1015mb 73f 69f
9:24am 9 11 mph 1015mb 73f 69f
9:18am 10 13 mph 1015mb 73f 69f
9:12am 10 14 mph 1015mb 73f 69f
9:06am 10 15 mph 1014.9mb 73f 69f
9:00am 11 14 mph 1014.8mb 73f 68f
8:54am 10 13 mph 1014.8mb 74f 68f
8:48am 8 13 mph 1014.6mb 74f 68f
8:42am 8 11 mph 1014.6mb 74f 68f
8:36am 7 11 mph 1014.6mb 74f 68f
8:30am 9 13 mph 1014.6mb 74f 67f
8:24am 7 13 mph 1014.6mb 74f 67f
8:18am 10 11 mph 1014.5mb 74f 67f
8:12am 9 11 mph 1014.4mb 74f 67f
8:06am 8 11 mph 1014.4mb 74f 67f
8:00am 8 11 mph 1014.4mb 74f 67f
7:54am 10 13 mph 1014.4mb 74f 66f
7:48am 8 13 mph 1014.3mb 74f 66f
7:42am 9 13 mph 1014.4mb 74f 66f
7:36am 9 11 mph 1014.4mb 74f 66f
7:30am 8 11 mph 1014.4mb 74f 66f
7:24am 8 11 mph 1014.5mb 74f 66f
7:18am 8 10 mph 1014.5mb 74f 66f
7:12am 7 9 mph 1014.5mb 74f 66f
7:06am 7 10 mph 1014.4mb 74f 65f
7:00am 9 10 mph 1014.4mb 74f 65f
6:54am 9 11 mph 1014.3mb 74f 65f
6:48am 8 11 mph 1014.2mb 74f 65f
6:42am 8 10 mph 1014.1mb 74f 65f
6:36am 7 9 mph 1014mb 74f 65f
6:30am 7 9 mph 1013.9mb 74f 65f
6:24am 7 9 mph 1013.9mb 74f 65f
6:18am 7 9 mph 1013.9mb 74f 64f
6:12am 7 8 mph 1013.9mb 74f 64f
6:06am 6 7 mph 1013.8mb 74f 64f
6:00am 6 7 mph 1013.8mb 74f 64f
5:54am 6 7 mph 1013.7mb 74f 64f
5:48am 6 7 mph 1013.7mb 74f 65f
5:42am 6 7 mph 1013.6mb 74f 65f
5:36am 6 7 mph 1013.6mb 74f 65f
5:30am 5 7 mph 1013.6mb 74f 65f
5:24am 6 9 mph 1013.6mb 74f 65f
5:18am 6 8 mph 1013.6mb 74f 65f
5:12am 6 7 mph 1013.4mb 74f 66f
5:06am 6 8 mph 1013.4mb 74f 66f
5:00am 6 7 mph 1013.4mb 74f 66f
4:54am 6 8 mph 1013.4mb 74f 67f
4:48am 6 8 mph 1013.4mb 74f 67f
4:42am 7 10 mph 1013.3mb 74f 67f
4:36am 8 13 mph 1013.2mb 74f 68f
4:30am 9 11 mph 1013.2mb 74f 68f
4:24am 7 9 mph 1013.1mb 74f 67f
4:18am 7 8 mph 1013.1mb 74f 68f
4:12am 7 10 mph 1013.2mb 74f 68f
4:06am 8 10 mph 1013.2mb 74f 68f
4:00am 8 10 mph 1013.1mb 74f 68f
3:54am 8 10 mph 1013mb 74f 68f
3:48am 9 11 mph 1013mb 74f 68f
3:42am 7 10 mph 1012.9mb 74f 68f
3:36am 8 10 mph 1012.8mb 74f 68f
3:30am 7 9 mph 1012.7mb 74f 68f
3:24am 7 9 mph 1012.7mb 74f 69f
3:18am 6 9 mph 1012.6mb 74f 69f
3:12am 7 9 mph 1012.6mb 74f 69f
3:06am 8 10 mph 1012.6mb 74f 69f
3:00am 8 9 mph 1012.6mb 74f 69f
2:54am 8 9 mph 1012.6mb 74f 69f
2:48am 6 8 mph 1012.5mb 74f 69f
2:42am 6 7 mph 1012.4mb 74f 69f
2:36am 5 6 mph 1012.3mb 74f 69f
2:30am 5 6 mph 1012.3mb 74f 69f
2:24am 6 7 mph 1012.4mb 74f 69f
2:18am 6 8 mph 1012.5mb 74f 69f
2:12am 5 6 mph 1012.5mb 74f 69f
2:06am 5 6 mph 1012.3mb 74f 69f
2:00am 6 7 mph 1012.3mb 74f 69f
1:54am 5 6 mph 1012.4mb 74f 69f
1:48am 3 5 mph 1012.5mb 74f 69f
1:42am 3 5 mph 1012.5mb 74f 69f
1:36am 2
mph
1012.4mb 74f 69f
1:30am 1 3 mph 1012.4mb 74f 69f
1:24am 2 3 mph 1012.4mb 74f 69f